createdAt,value
2018-01-28T00:00:53.799Z,16.27
2018-01-28T00:03:20.008Z,17.23
2018-01-28T00:05:46.923Z,12.50
2018-01-28T00:08:13.107Z,12.80
2018-01-28T00:10:39.336Z,15.43
2018-01-28T00:13:05.535Z,12.03
2018-01-28T00:15:31.715Z,13.77
2018-01-28T00:17:57.941Z,15.83
2018-01-28T00:20:24.136Z,13.67
2018-01-28T00:22:50.341Z,14.53
2018-01-28T00:25:16.544Z,15.73
2018-01-28T00:27:42.723Z,12.70
2018-01-28T00:30:08.894Z,13.07
2018-01-28T00:32:35.900Z,11.40
2018-01-28T00:35:02.277Z,13.10
2018-01-28T00:37:29.177Z,14.70
2018-01-28T00:39:55.396Z,10.80
2018-01-28T00:42:21.557Z,10.03
2018-01-28T00:44:47.736Z,16.63
2018-01-28T00:47:14.676Z,10.27
2018-01-28T00:49:40.835Z,8.77
2018-01-28T00:52:07.009Z,9.90
2018-01-28T00:54:33.200Z,8.63
2018-01-28T00:56:59.347Z,8.40
2018-01-28T00:59:25.495Z,9.27
2018-01-28T01:01:51.672Z,9.20
2018-01-28T01:04:17.821Z,7.80
2018-01-28T01:06:44.732Z,11.77
2018-01-28T01:09:10.934Z,9.30
2018-01-28T01:11:37.115Z,11.03
2018-01-28T01:14:04.767Z,9.77
2018-01-28T01:16:30.975Z,6.73
2018-01-28T01:18:57.132Z,7.50
2018-01-28T01:21:23.302Z,8.47
2018-01-28T01:23:50.223Z,5.87
2018-01-28T01:26:16.395Z,6.73
2018-01-28T01:28:42.576Z,6.13
2018-01-28T01:31:08.774Z,6.07
2018-01-28T01:33:35.012Z,7.37
2018-01-28T01:36:01.312Z,7.27
2018-01-28T01:38:28.245Z,6.70
2018-01-28T01:40:54.440Z,9.50
2018-01-28T01:43:20.611Z,5.57
2018-01-28T01:45:46.815Z,6.10
2018-01-28T01:48:12.980Z,7.60
2018-01-28T01:50:39.147Z,5.57
2018-01-28T01:53:06.062Z,5.97
2018-01-28T01:55:32.979Z,6.10
2018-01-28T01:57:59.140Z,5.57
2018-01-28T02:00:25.318Z,5.70
2018-01-28T02:02:51.491Z,6.60
2018-01-28T02:05:17.683Z,7.30
2018-01-28T02:07:43.883Z,6.97
2018-01-28T02:10:10.032Z,7.20
2018-01-28T02:12:36.201Z,8.20
2018-01-28T02:15:02.401Z,7.30
2018-01-28T02:17:29.301Z,7.33
2018-01-28T02:19:55.462Z,8.50
2018-01-28T02:22:21.682Z,8.13
2018-01-28T02:24:47.847Z,7.97
2018-01-28T02:27:14.055Z,8.70
2018-01-28T02:29:40.208Z,8.50
2018-01-28T02:32:06.375Z,9.40
2018-01-28T02:34:32.620Z,8.60
2018-01-28T02:36:59.009Z,8.70
2018-01-28T02:39:25.932Z,8.90
2018-01-28T02:41:52.152Z,13.80
2018-01-28T02:44:18.384Z,9.90
2018-01-28T02:46:44.532Z,10.30
2018-01-28T02:49:10.685Z,11.57
2018-01-28T02:51:36.920Z,11.73
2018-01-28T02:54:03.095Z,11.70
2018-01-28T02:56:29.995Z,11.90
2018-01-28T02:58:56.175Z,12.67
2018-01-28T03:01:22.376Z,12.93
2018-01-28T03:03:49.278Z,14.90
2018-01-28T03:06:15.443Z,14.27
2018-01-28T03:08:41.609Z,19.13
2018-01-28T03:11:07.779Z,14.63
2018-01-28T03:13:33.947Z,14.80
2018-01-28T03:16:00.100Z,14.87
2018-01-28T03:18:26.300Z,15.77
2018-01-28T03:20:52.470Z,21.30
2018-01-28T03:23:19.391Z,17.73
2018-01-28T03:25:45.607Z,17.13
2018-01-28T03:28:11.784Z,16.10
2018-01-28T03:30:38.725Z,15.60
2018-01-28T03:33:04.915Z,16.33
2018-01-28T03:35:31.195Z,15.90
2018-01-28T03:37:58.123Z,16.30
2018-01-28T03:40:24.302Z,14.97
2018-01-28T03:42:51.276Z,18.70
2018-01-28T03:45:17.453Z,14.73
2018-01-28T03:47:43.635Z,16.00
2018-01-28T03:50:10.628Z,14.80
2018-01-28T03:52:36.767Z,15.30
2018-01-28T03:55:03.744Z,13.87
2018-01-28T03:57:29.928Z,16.23
2018-01-28T03:59:56.105Z,13.53
2018-01-28T04:02:23.754Z,12.70
2018-01-28T04:04:51.599Z,14.73
2018-01-28T04:07:17.779Z,15.13
2018-01-28T04:09:43.955Z,12.73
2018-01-28T04:12:10.123Z,11.10
2018-01-28T04:14:36.267Z,10.57
2018-01-28T04:19:40.276Z,12.53
2018-01-28T04:22:06.445Z,21.70
2018-01-28T04:24:33.363Z,15.03
2018-01-28T04:26:59.546Z,14.97
2018-01-28T04:29:25.715Z,19.30
2018-01-28T04:31:51.875Z,20.40
2018-01-28T04:34:18.038Z,22.30
2018-01-28T04:36:46.755Z,23.50
2018-01-28T04:39:15.804Z,19.13
2018-01-28T04:41:41.947Z,16.47
2018-01-28T04:44:08.112Z,19.00
2018-01-28T04:46:34.268Z,19.53
2018-01-28T04:49:00.440Z,19.10
2018-01-28T04:51:26.596Z,17.47
2018-01-28T04:53:53.505Z,24.37
2018-01-28T04:56:19.679Z,19.47
2018-01-28T04:58:46.581Z,21.90
2018-01-28T05:01:12.752Z,25.67
2018-01-28T05:03:40.414Z,19.27
2018-01-28T05:06:06.583Z,24.50
2018-01-28T05:08:32.771Z,22.97
2018-01-28T05:10:58.959Z,29.13
2018-01-28T05:13:25.125Z,23.10
2018-01-28T05:15:51.295Z,16.60
2018-01-28T05:18:18.208Z,29.00
2018-01-28T05:20:44.357Z,20.40
2018-01-28T05:23:10.524Z,22.23
2018-01-28T05:25:36.724Z,17.97
2018-01-28T05:28:02.883Z,27.53
2018-01-28T05:30:29.781Z,24.53
2018-01-28T05:32:55.952Z,28.07
2018-01-28T05:35:22.100Z,20.60
2018-01-28T05:37:49.076Z,26.53
2018-01-28T05:40:16.192Z,19.90
2018-01-28T05:42:43.101Z,31.67
2018-01-28T05:45:09.247Z,30.50
2018-01-28T05:47:35.411Z,19.80
2018-01-28T05:50:02.347Z,31.53
2018-01-28T05:52:29.292Z,30.67
2018-01-28T05:54:55.602Z,34.70
2018-01-28T05:57:21.768Z,19.77
2018-01-28T05:59:47.955Z,27.20
2018-01-28T06:02:14.124Z,29.83
2018-01-28T06:04:40.302Z,16.80
2018-01-28T06:07:06.498Z,19.50
2018-01-28T06:09:32.692Z,35.37
2018-01-28T06:11:58.856Z,29.37
2018-01-28T06:14:25.035Z,28.73
2018-01-28T06:16:51.208Z,19.03
2018-01-28T06:19:17.595Z,30.30
2018-01-28T06:21:43.779Z,25.47
2018-01-28T06:24:09.950Z,37.00
2018-01-28T06:26:36.104Z,27.83
2018-01-28T06:29:02.284Z,26.83
2018-01-28T06:31:28.454Z,29.83
2018-01-28T06:33:55.364Z,26.70
2018-01-28T06:36:21.511Z,32.63
2018-01-28T06:38:47.755Z,30.93
2018-01-28T06:41:14.686Z,23.83
2018-01-28T06:43:40.859Z,24.23
2018-01-28T06:46:07.772Z,35.37
2018-01-28T06:48:33.960Z,35.47
2018-01-28T06:51:00.125Z,24.30
2018-01-28T06:53:26.365Z,32.70
2018-01-28T06:55:52.544Z,28.07
2018-01-28T06:58:19.451Z,26.70
2018-01-28T07:00:45.652Z,29.67
2018-01-28T07:03:11.860Z,20.93
2018-01-28T07:05:38.048Z,26.83
2018-01-28T07:08:04.268Z,43.93
2018-01-28T07:10:30.469Z,25.10
2018-01-28T07:12:56.728Z,30.50
2018-01-28T07:17:48.208Z,29.90
2018-01-28T07:20:14.424Z,27.43
2018-01-28T07:22:40.608Z,23.93
2018-01-28T07:25:07.584Z,30.43
2018-01-28T07:27:33.755Z,24.60
2018-01-28T07:29:59.940Z,33.17
2018-01-28T07:32:26.119Z,37.40
2018-01-28T07:34:53.072Z,33.77
2018-01-28T07:37:19.255Z,39.27
2018-01-28T07:39:45.510Z,40.07
2018-01-28T07:42:12.610Z,30.20
2018-01-28T07:44:39.552Z,26.90
2018-01-28T07:47:05.775Z,32.67
2018-01-28T07:49:32.740Z,42.00
2018-01-28T07:51:59.685Z,23.00
2018-01-28T07:54:25.884Z,25.37
2018-01-28T07:56:52.078Z,31.53
2018-01-28T07:59:18.275Z,32.73
2018-01-28T08:01:44.486Z,36.13
2018-01-28T08:04:10.676Z,42.47
2018-01-28T08:06:36.892Z,31.13
2018-01-28T08:09:03.075Z,23.93
2018-01-28T08:11:34.139Z,21.53
2018-01-28T08:14:00.345Z,40.87
2018-01-28T08:16:26.573Z,22.73
2018-01-28T08:18:52.770Z,34.57
2018-01-28T08:21:18.949Z,37.43
2018-01-28T08:23:46.026Z,39.57
2018-01-28T08:26:12.235Z,33.47
2018-01-28T08:28:50.400Z,38.10
2018-01-28T08:31:17.376Z,32.23
2018-01-28T08:33:44.330Z,30.67
2018-01-28T08:36:11.275Z,45.73
2018-01-28T08:38:38.206Z,45.77
2018-01-28T08:41:05.427Z,33.83
2018-01-28T08:43:31.819Z,27.67
2018-01-28T08:45:57.974Z,37.50
2018-01-28T08:48:24.187Z,37.97
2018-01-28T08:50:51.136Z,28.60
2018-01-28T08:53:18.060Z,40.47
2018-01-28T08:55:44.256Z,28.53
2018-01-28T08:58:10.491Z,35.07
2018-01-28T09:00:36.707Z,38.40
2018-01-28T09:03:02.887Z,29.40
2018-01-28T09:05:29.082Z,27.50
2018-01-28T09:07:55.292Z,31.73
2018-01-28T09:10:22.220Z,42.37
2018-01-28T09:12:48.471Z,26.33
2018-01-28T09:15:15.415Z,36.30
2018-01-28T09:17:43.076Z,41.43
2018-01-28T09:20:09.272Z,47.50
2018-01-28T09:22:35.440Z,35.77
2018-01-28T09:25:01.619Z,43.53
2018-01-28T09:27:27.816Z,34.37
2018-01-28T09:29:54.072Z,45.77
2018-01-28T09:32:20.285Z,41.53
2018-01-28T09:34:47.952Z,26.37
2018-01-28T09:37:14.117Z,31.03
2018-01-28T09:39:40.312Z,44.30
2018-01-28T09:42:06.624Z,40.83
2018-01-28T09:44:32.998Z,30.60
2018-01-28T09:46:59.937Z,29.37
2018-01-28T09:49:26.115Z,35.70
2018-01-28T09:51:53.043Z,31.27
2018-01-28T09:54:19.984Z,37.83
2018-01-28T09:56:46.204Z,38.60
2018-01-28T09:59:12.381Z,25.03
2018-01-28T10:01:38.575Z,36.00
2018-01-28T10:04:04.760Z,38.03
2018-01-28T10:06:30.968Z,34.50
2018-01-28T10:08:57.880Z,42.27
2018-01-28T10:11:24.071Z,32.17
2018-01-28T10:13:50.252Z,30.37
2018-01-28T10:16:16.433Z,50.70
2018-01-28T10:18:42.645Z,30.10
2018-01-28T10:21:08.840Z,46.23
2018-01-28T10:23:35.064Z,31.30
2018-01-28T10:26:01.274Z,37.37
2018-01-28T10:28:27.445Z,28.00
2018-01-28T10:30:53.643Z,30.13
2018-01-28T10:33:19.889Z,36.73
2018-01-28T10:35:46.069Z,27.60
2018-01-28T10:38:12.300Z,39.07
2018-01-28T10:40:38.493Z,28.77
2018-01-28T10:43:04.924Z,34.90
2018-01-28T10:45:32.021Z,36.83
2018-01-28T10:47:58.216Z,40.17
2018-01-28T10:50:24.496Z,37.00
2018-01-28T10:52:51.662Z,52.00
2018-01-28T10:55:18.470Z,30.57
2018-01-28T10:57:44.756Z,33.97
2018-01-28T11:00:12.112Z,30.97
2018-01-28T11:02:38.684Z,35.70
2018-01-28T11:05:06.416Z,37.20
2018-01-28T11:07:32.847Z,32.27
2018-01-28T11:10:00.224Z,53.43
2018-01-28T11:12:27.888Z,123.90
2018-01-28T11:14:55.546Z,54.07
2018-01-28T11:17:22.502Z,42.70
2018-01-28T11:19:50.066Z,31.53
2018-01-28T11:22:17.533Z,39.40
2018-01-28T11:24:44.655Z,42.47
2018-01-28T11:27:12.352Z,38.30
2018-01-28T11:29:39.783Z,39.17
2018-01-28T11:32:07.277Z,36.70
2018-01-28T11:34:33.551Z,25.93
2018-01-28T11:37:00.054Z,46.17
2018-01-28T11:39:26.476Z,27.90
2018-01-28T11:41:52.715Z,31.57
2018-01-28T11:44:19.872Z,38.13
2018-01-28T11:46:46.435Z,43.73
2018-01-28T11:49:13.396Z,36.37
2018-01-28T11:51:39.595Z,38.03
2018-01-28T11:54:05.821Z,40.03
2018-01-28T11:56:32.024Z,33.57
2018-01-28T11:58:58.267Z,32.07
2018-01-28T12:01:24.476Z,30.40
2018-01-28T12:03:50.651Z,28.10
2018-01-28T12:06:16.896Z,33.73
2018-01-28T12:08:43.158Z,35.93
2018-01-28T12:11:09.503Z,42.37
2018-01-28T12:13:35.778Z,35.07
2018-01-28T12:16:02.012Z,44.73
2018-01-28T12:18:28.345Z,37.77
2018-01-28T12:20:55.379Z,36.97
2018-01-28T12:23:21.665Z,44.73
2018-01-28T12:25:48.146Z,41.63
2018-01-28T12:28:14.626Z,47.00
2018-01-28T12:30:41.127Z,36.73
2018-01-28T12:33:08.385Z,42.00
2018-01-28T12:35:34.730Z,30.27
2018-01-28T12:38:01.851Z,31.30
2018-01-28T12:40:28.355Z,46.63
2018-01-28T12:42:55.390Z,28.33
2018-01-28T12:45:21.993Z,48.00
2018-01-28T12:47:49.387Z,42.83
2018-01-28T12:50:17.254Z,36.13
2018-01-28T12:52:43.759Z,35.40
2018-01-28T12:55:10.833Z,47.93
2018-01-28T12:57:37.282Z,47.17
2018-01-28T13:00:03.596Z,36.63
2018-01-28T13:02:30.674Z,50.37
2018-01-28T13:04:57.846Z,32.77
2018-01-28T13:07:25.008Z,53.70
2018-01-28T13:09:51.299Z,38.53
2018-01-28T13:12:17.653Z,42.87
2018-01-28T13:14:43.985Z,28.37
2018-01-28T13:17:10.277Z,50.17
2018-01-28T13:19:36.517Z,35.50
2018-01-28T13:22:02.758Z,48.50
2018-01-28T13:24:28.965Z,38.90
2018-01-28T13:26:55.191Z,46.83
2018-01-28T13:29:21.433Z,51.10
2018-01-28T13:31:47.606Z,29.97
2018-01-28T13:34:14.551Z,41.90
2018-01-28T13:36:40.760Z,47.80
2018-01-28T13:39:06.970Z,34.13
2018-01-28T13:41:33.141Z,58.10
2018-01-28T13:43:59.367Z,36.60
2018-01-28T13:46:25.669Z,44.50
2018-01-28T13:48:51.907Z,46.00
2018-01-28T13:51:18.144Z,51.20
2018-01-28T13:53:44.336Z,36.50
2018-01-28T13:56:11.276Z,47.10
2018-01-28T13:58:37.473Z,38.43
2018-01-28T14:01:03.670Z,43.83
2018-01-28T14:03:29.871Z,51.90
2018-01-28T14:05:56.055Z,38.23
2018-01-28T14:08:22.230Z,45.67
2018-01-28T14:10:48.422Z,35.87
2018-01-28T14:13:14.598Z,39.90
2018-01-28T14:15:40.790Z,33.40
2018-01-28T14:18:07.003Z,42.00
2018-01-28T14:20:33.212Z,37.70
2018-01-28T14:22:59.384Z,38.60
2018-01-28T14:25:25.575Z,32.70
2018-01-28T14:27:51.800Z,47.77
2018-01-28T14:30:17.999Z,37.73
2018-01-28T14:32:44.188Z,47.97
2018-01-28T14:35:11.167Z,32.10
2018-01-28T14:37:38.084Z,28.77
2018-01-28T14:40:05.040Z,60.23
2018-01-28T14:42:31.235Z,36.80
2018-01-28T14:44:57.412Z,35.57
2018-01-28T14:47:23.672Z,60.90
2018-01-28T14:49:51.414Z,45.13
2018-01-28T14:52:19.071Z,47.73
2018-01-28T14:54:45.260Z,45.60
2018-01-28T14:57:11.505Z,53.23
2018-01-28T14:59:37.685Z,33.97
2018-01-28T15:02:03.868Z,37.83
2018-01-28T15:04:30.068Z,30.00
2018-01-28T15:06:56.977Z,47.93
2018-01-28T15:09:23.168Z,42.30
2018-01-28T15:11:49.376Z,36.13
2018-01-28T15:14:26.646Z,38.17
2018-01-28T15:16:53.582Z,34.13
2018-01-28T15:19:19.803Z,37.33
2018-01-28T15:21:45.975Z,37.73
2018-01-28T15:24:12.209Z,50.17
2018-01-28T15:26:39.151Z,37.53
2018-01-28T15:29:05.319Z,36.53
2018-01-28T15:31:31.539Z,37.77
2018-01-28T15:33:58.294Z,50.37
2018-01-28T15:36:24.496Z,46.73
2018-01-28T15:38:50.699Z,33.00
2018-01-28T15:41:16.895Z,24.40
2018-01-28T15:43:43.822Z,34.87
2018-01-28T15:46:10.009Z,35.20
2018-01-28T15:48:36.412Z,26.93
2018-01-28T15:51:02.852Z,38.90
2018-01-28T15:53:29.804Z,31.20
2018-01-28T15:55:56.056Z,41.47
2018-01-28T15:58:22.331Z,26.13
2018-01-28T16:00:49.295Z,37.60
2018-01-28T16:03:15.472Z,41.67
2018-01-28T16:05:42.379Z,42.63
2018-01-28T16:08:08.593Z,27.10
2018-01-28T16:10:36.202Z,32.73
2018-01-28T16:13:06.011Z,32.70
2018-01-28T16:15:32.736Z,38.13
2018-01-28T16:17:58.917Z,30.60
2018-01-28T16:20:25.103Z,52.10
2018-01-28T16:22:52.546Z,28.57
2018-01-28T16:25:19.241Z,46.33
2018-01-28T16:27:46.155Z,33.90
2018-01-28T16:30:12.356Z,37.80
2018-01-28T16:32:38.523Z,35.87
2018-01-28T16:35:04.700Z,32.13
2018-01-28T16:37:30.916Z,38.80
2018-01-28T16:39:57.112Z,34.07
2018-01-28T16:42:23.272Z,24.50
2018-01-28T16:44:49.484Z,33.93
2018-01-28T16:47:15.903Z,28.90
2018-01-28T16:49:42.265Z,25.13
2018-01-28T16:52:08.687Z,26.60
2018-01-28T16:54:34.880Z,25.57
2018-01-28T16:57:01.098Z,29.30
2018-01-28T16:59:27.296Z,23.97
2018-01-28T17:01:53.491Z,25.03
2018-01-28T17:04:20.418Z,26.13
2018-01-28T17:06:47.400Z,22.40
2018-01-28T17:09:13.612Z,27.27
2018-01-28T17:11:40.538Z,29.07
2018-01-28T17:14:06.735Z,30.40
2018-01-28T17:16:32.955Z,35.47
2018-01-28T17:18:59.134Z,31.53
2018-01-28T17:21:25.362Z,31.43
2018-01-28T17:23:51.523Z,29.20
2018-01-28T17:26:18.480Z,19.37
2018-01-28T17:28:44.691Z,24.53
2018-01-28T17:31:10.871Z,25.50
2018-01-28T17:33:37.036Z,24.50
2018-01-28T17:36:03.254Z,18.67
2018-01-28T17:38:29.464Z,25.90
2018-01-28T17:40:56.376Z,19.30
2018-01-28T17:43:23.360Z,17.90
2018-01-28T17:45:50.266Z,26.30
2018-01-28T17:48:16.422Z,18.43
2018-01-28T17:50:42.695Z,22.30
2018-01-28T17:53:09.123Z,19.73
2018-01-28T17:55:36.046Z,18.97
2018-01-28T17:58:02.988Z,10.97
2018-01-28T18:00:32.225Z,16.00
2018-01-28T18:03:01.027Z,17.37
2018-01-28T18:05:28.669Z,9.53
2018-01-28T18:07:55.193Z,10.73
2018-01-28T18:10:22.104Z,9.57
2018-01-28T18:12:48.313Z,16.67
2018-01-28T18:15:14.509Z,11.73
2018-01-28T18:17:40.682Z,7.53
2018-01-28T18:20:06.925Z,6.47
2018-01-28T18:22:33.093Z,7.20
2018-01-28T18:25:00.129Z,6.60
2018-01-28T18:27:26.307Z,9.30
2018-01-28T18:29:53.240Z,4.73
2018-01-28T18:32:19.401Z,5.97
2018-01-28T18:34:46.332Z,11.20
2018-01-28T18:37:13.263Z,5.83
2018-01-28T18:39:39.441Z,6.80
2018-01-28T18:42:06.379Z,4.33
2018-01-28T18:44:32.576Z,4.13
2018-01-28T18:46:58.760Z,3.70
2018-01-28T18:49:24.993Z,6.00
2018-01-28T18:51:51.194Z,3.50
2018-01-28T18:54:18.143Z,3.93
2018-01-28T18:56:44.342Z,4.93
2018-01-28T18:59:10.532Z,6.00
2018-01-28T19:01:37.464Z,5.00
2018-01-28T19:04:03.639Z,4.97
2018-01-28T19:06:30.552Z,5.97
2018-01-28T19:08:57.820Z,5.37
2018-01-28T19:11:24.000Z,5.13
2018-01-28T19:13:50.179Z,3.70
2018-01-28T19:16:17.832Z,4.00
2018-01-28T19:18:44.022Z,4.30
2018-01-28T19:21:10.219Z,3.33
2018-01-28T19:23:37.875Z,3.77
2018-01-28T19:26:04.069Z,2.87
2018-01-28T19:28:30.259Z,9.30
2018-01-28T19:30:56.428Z,3.63
2018-01-28T19:33:22.646Z,3.60
2018-01-28T19:35:49.595Z,2.77
2018-01-28T19:38:15.776Z,2.40
2018-01-28T19:40:41.959Z,3.03
2018-01-28T19:43:08.875Z,3.00
2018-01-28T19:45:35.040Z,3.50
2018-01-28T19:48:01.984Z,2.77
2018-01-28T19:50:28.930Z,2.90
2018-01-28T19:52:55.919Z,3.10
2018-01-28T19:55:22.369Z,2.47
2018-01-28T19:57:48.560Z,2.80
2018-01-28T20:00:15.471Z,2.37
2018-01-28T20:02:41.674Z,2.13
2018-01-28T20:05:07.835Z,2.47
2018-01-28T20:07:33.987Z,2.27
2018-01-28T20:10:00.196Z,2.30
2018-01-28T20:12:26.372Z,2.73
2018-01-28T20:14:53.303Z,2.57
2018-01-28T20:17:19.506Z,3.27
2018-01-28T20:19:45.696Z,2.60
2018-01-28T20:22:12.610Z,2.23
2018-01-28T20:24:38.808Z,2.30
2018-01-28T20:27:04.993Z,2.00
2018-01-28T20:29:31.172Z,2.20
2018-01-28T20:31:57.388Z,5.37
2018-01-28T20:34:24.290Z,2.50
2018-01-28T20:36:50.471Z,2.33
2018-01-28T20:39:17.410Z,2.73
2018-01-28T20:41:44.339Z,2.10
2018-01-28T20:44:11.268Z,2.13
2018-01-28T20:46:37.468Z,3.80
2018-01-28T20:49:04.372Z,2.50
2018-01-28T20:51:30.564Z,2.97
2018-01-28T20:53:56.835Z,2.40
2018-01-28T20:56:23.783Z,1.63
2018-01-28T20:58:49.972Z,2.60
2018-01-28T21:01:16.146Z,2.33
2018-01-28T21:03:43.096Z,2.97
2018-01-28T21:06:09.268Z,2.17
2018-01-28T21:08:36.405Z,2.20
2018-01-28T21:11:02.572Z,2.47
2018-01-28T21:13:28.765Z,2.37
2018-01-28T21:15:54.964Z,2.63
2018-01-28T21:18:21.124Z,2.67
2018-01-28T21:20:47.292Z,2.80
2018-01-28T21:23:14.239Z,2.00
2018-01-28T21:25:41.157Z,2.80
2018-01-28T21:28:07.329Z,2.23
2018-01-28T21:30:34.260Z,2.47
2018-01-28T21:33:00.480Z,2.30
2018-01-28T21:35:26.654Z,2.90
2018-01-28T21:37:53.579Z,3.50
2018-01-28T21:40:19.745Z,2.90
2018-01-28T21:42:46.654Z,5.70
2018-01-28T21:45:13.608Z,3.40
2018-01-28T21:47:39.787Z,4.13
2018-01-28T21:50:05.965Z,3.27
2018-01-28T21:52:32.171Z,4.03
2018-01-28T21:54:58.792Z,5.73
2018-01-28T21:57:25.195Z,3.53
2018-01-28T21:59:51.400Z,3.67
2018-01-28T22:02:17.587Z,3.70
2018-01-28T22:04:44.505Z,3.30
2018-01-28T22:07:10.684Z,3.83
2018-01-28T22:09:36.996Z,3.80
2018-01-28T22:12:03.960Z,4.07
2018-01-28T22:14:30.159Z,4.40
2018-01-28T22:16:56.361Z,3.93
2018-01-28T22:19:23.271Z,4.07
2018-01-28T22:21:50.224Z,3.87
2018-01-28T22:24:17.149Z,4.03
2018-01-28T22:26:44.087Z,3.93
2018-01-28T22:29:10.328Z,3.70
2018-01-28T22:31:36.556Z,4.40
2018-01-28T22:34:02.720Z,3.50
2018-01-28T22:36:29.837Z,6.07
2018-01-28T22:38:56.025Z,3.73
2018-01-28T22:41:22.223Z,4.10
2018-01-28T22:43:48.424Z,4.73
2018-01-28T22:46:14.615Z,5.10
2018-01-28T22:48:41.543Z,4.20
2018-01-28T22:51:08.488Z,4.00
2018-01-28T22:53:34.664Z,4.77
2018-01-28T22:56:00.893Z,4.27
2018-01-28T22:58:27.441Z,3.47
2018-01-28T23:00:53.623Z,8.00
2018-01-28T23:03:19.869Z,3.27
2018-01-28T23:05:46.063Z,4.00
2018-01-28T23:08:12.252Z,3.80
2018-01-28T23:10:39.192Z,3.40
2018-01-28T23:13:05.412Z,4.00
2018-01-28T23:15:31.614Z,3.63
2018-01-28T23:17:57.787Z,4.30
2018-01-28T23:20:24.021Z,4.40
2018-01-28T23:22:50.198Z,4.10
2018-01-28T23:25:17.137Z,4.80
2018-01-28T23:27:44.100Z,5.17
2018-01-28T23:30:10.295Z,6.50
2018-01-28T23:32:37.944Z,6.13
2018-01-28T23:35:04.136Z,5.33
2018-01-28T23:37:31.056Z,4.97
2018-01-28T23:39:57.981Z,6.20
2018-01-28T23:42:24.151Z,6.57
2018-01-28T23:44:51.055Z,7.40
2018-01-28T23:47:17.224Z,7.10
2018-01-28T23:49:44.170Z,6.70
2018-01-28T23:52:10.361Z,11.27
2018-01-28T23:54:37.315Z,8.20
2018-01-28T23:57:03.572Z,7.97
2018-01-28T23:59:30.528Z,9.90
